sensor_id;sensor_type;location;lat;lon;timestamp;P1;durP1;ratioP1;P2;durP2;ratioP2
78871;SDS011;68247;43.514;1.502;2023-06-24T00:00:56;6.70;;;3.80;;
78871;SDS011;68247;43.514;1.502;2023-06-24T00:03:22;7.23;;;3.50;;
78871;SDS011;68247;43.514;1.502;2023-06-24T00:05:47;6.27;;;3.43;;
78871;SDS011;68247;43.514;1.502;2023-06-24T00:08:17;7.15;;;3.55;;
78871;SDS011;68247;43.514;1.502;2023-06-24T00:10:45;7.10;;;3.50;;
78871;SDS011;68247;43.514;1.502;2023-06-24T00:13:11;8.02;;;3.80;;
78871;SDS011;68247;43.514;1.502;2023-06-24T00:15:37;7.03;;;3.73;;
78871;SDS011;68247;43.514;1.502;2023-06-24T00:18:07;7.82;;;3.80;;
78871;SDS011;68247;43.514;1.502;2023-06-24T00:20:33;5.38;;;3.30;;
78871;SDS011;68247;43.514;1.502;2023-06-24T00:22:59;7.77;;;3.90;;
78871;SDS011;68247;43.514;1.502;2023-06-24T00:25:24;6.90;;;3.80;;
78871;SDS011;68247;43.514;1.502;2023-06-24T00:27:49;7.60;;;3.60;;
78871;SDS011;68247;43.514;1.502;2023-06-24T00:30:15;7.40;;;3.67;;
78871;SDS011;68247;43.514;1.502;2023-06-24T00:32:40;6.10;;;3.63;;
78871;SDS011;68247;43.514;1.502;2023-06-24T00:35:06;8.30;;;3.60;;
78871;SDS011;68247;43.514;1.502;2023-06-24T00:37:31;6.47;;;3.70;;
78871;SDS011;68247;43.514;1.502;2023-06-24T00:39:57;6.43;;;3.43;;
78871;SDS011;68247;43.514;1.502;2023-06-24T00:42:22;7.40;;;3.57;;
78871;SDS011;68247;43.514;1.502;2023-06-24T00:44:48;6.00;;;3.60;;
78871;SDS011;68247;43.514;1.502;2023-06-24T00:47:13;5.35;;;3.35;;
78871;SDS011;68247;43.514;1.502;2023-06-24T00:49:39;7.50;;;3.33;;
78871;SDS011;68247;43.514;1.502;2023-06-24T00:52:04;7.57;;;3.37;;
78871;SDS011;68247;43.514;1.502;2023-06-24T00:54:30;5.47;;;3.33;;
78871;SDS011;68247;43.514;1.502;2023-06-24T00:56:56;7.28;;;4.03;;
78871;SDS011;68247;43.514;1.502;2023-06-24T00:59:25;8.40;;;4.43;;
78871;SDS011;68247;43.514;1.502;2023-06-24T01:01:55;7.37;;;4.30;;
78871;SDS011;68247;43.514;1.502;2023-06-24T01:04:20;7.35;;;4.55;;
78871;SDS011;68247;43.514;1.502;2023-06-24T01:06:46;6.70;;;4.23;;
78871;SDS011;68247;43.514;1.502;2023-06-24T01:09:11;6.70;;;4.15;;
78871;SDS011;68247;43.514;1.502;2023-06-24T01:11:38;8.27;;;4.40;;
78871;SDS011;68247;43.514;1.502;2023-06-24T01:14:03;7.63;;;4.57;;
78871;SDS011;68247;43.514;1.502;2023-06-24T01:22:06;6.30;;;3.65;;
78871;SDS011;68247;43.514;1.502;2023-06-24T01:25:44;7.38;;;3.85;;
78871;SDS011;68247;43.514;1.502;2023-06-24T01:34:06;8.17;;;3.67;;
78871;SDS011;68247;43.514;1.502;2023-06-24T01:36:32;6.85;;;3.90;;
78871;SDS011;68247;43.514;1.502;2023-06-24T01:39:01;6.80;;;3.80;;
78871;SDS011;68247;43.514;1.502;2023-06-24T01:41:30;7.20;;;4.18;;
78871;SDS011;68247;43.514;1.502;2023-06-24T01:43:57;6.40;;;3.78;;
78871;SDS011;68247;43.514;1.502;2023-06-24T01:46:23;8.27;;;3.90;;
78871;SDS011;68247;43.514;1.502;2023-06-24T01:48:50;7.38;;;3.60;;
78871;SDS011;68247;43.514;1.502;2023-06-24T01:51:20;8.52;;;4.20;;
78871;SDS011;68247;43.514;1.502;2023-06-24T01:53:53;8.15;;;4.10;;
78871;SDS011;68247;43.514;1.502;2023-06-24T01:56:23;7.47;;;3.87;;
78871;SDS011;68247;43.514;1.502;2023-06-24T01:58:51;6.05;;;3.50;;
78871;SDS011;68247;43.514;1.502;2023-06-24T02:01:18;7.68;;;3.97;;
78871;SDS011;68247;43.514;1.502;2023-06-24T02:03:44;7.28;;;4.05;;
78871;SDS011;68247;43.514;1.502;2023-06-24T02:06:10;8.03;;;4.10;;
78871;SDS011;68247;43.514;1.502;2023-06-24T02:08:37;5.67;;;3.80;;
78871;SDS011;68247;43.514;1.502;2023-06-24T02:11:04;7.57;;;3.92;;
78871;SDS011;68247;43.514;1.502;2023-06-24T02:13:30;6.78;;;3.83;;
78871;SDS011;68247;43.514;1.502;2023-06-24T02:15:57;6.80;;;3.67;;
78871;SDS011;68247;43.514;1.502;2023-06-24T02:18:24;6.97;;;3.80;;
78871;SDS011;68247;43.514;1.502;2023-06-24T02:20:52;8.83;;;4.10;;
78871;SDS011;68247;43.514;1.502;2023-06-24T02:23:18;8.25;;;4.28;;
78871;SDS011;68247;43.514;1.502;2023-06-24T02:25:45;6.35;;;3.50;;
78871;SDS011;68247;43.514;1.502;2023-06-24T02:28:10;7.13;;;4.13;;
78871;SDS011;68247;43.514;1.502;2023-06-24T02:30:37;6.65;;;4.13;;
78871;SDS011;68247;43.514;1.502;2023-06-24T02:33:03;6.80;;;3.65;;
78871;SDS011;68247;43.514;1.502;2023-06-24T02:35:28;6.23;;;3.40;;
78871;SDS011;68247;43.514;1.502;2023-06-24T02:37:54;7.60;;;3.90;;
78871;SDS011;68247;43.514;1.502;2023-06-24T02:40:19;6.75;;;3.60;;
78871;SDS011;68247;43.514;1.502;2023-06-24T02:42:45;6.40;;;4.03;;
78871;SDS011;68247;43.514;1.502;2023-06-24T02:45:10;6.47;;;4.07;;
78871;SDS011;68247;43.514;1.502;2023-06-24T02:47:36;6.13;;;3.90;;
78871;SDS011;68247;43.514;1.502;2023-06-24T02:50:05;7.60;;;3.83;;
78871;SDS011;68247;43.514;1.502;2023-06-24T02:52:32;6.78;;;3.97;;
78871;SDS011;68247;43.514;1.502;2023-06-24T02:54:58;8.77;;;4.40;;
78871;SDS011;68247;43.514;1.502;2023-06-24T02:57:24;9.17;;;4.50;;
78871;SDS011;68247;43.514;1.502;2023-06-24T02:59:50;6.07;;;3.83;;
78871;SDS011;68247;43.514;1.502;2023-06-24T03:02:16;8.07;;;4.20;;
78871;SDS011;68247;43.514;1.502;2023-06-24T03:04:41;9.05;;;4.55;;
78871;SDS011;68247;43.514;1.502;2023-06-24T03:07:07;7.23;;;4.43;;
78871;SDS011;68247;43.514;1.502;2023-06-24T03:09:35;9.70;;;5.20;;
78871;SDS011;68247;43.514;1.502;2023-06-24T03:12:00;7.50;;;4.33;;
78871;SDS011;68247;43.514;1.502;2023-06-24T03:14:26;7.93;;;4.90;;
78871;SDS011;68247;43.514;1.502;2023-06-24T03:16:52;8.63;;;4.40;;
78871;SDS011;68247;43.514;1.502;2023-06-24T03:19:17;8.00;;;4.73;;
78871;SDS011;68247;43.514;1.502;2023-06-24T03:21:42;7.40;;;4.43;;
78871;SDS011;68247;43.514;1.502;2023-06-24T03:24:08;7.75;;;4.55;;
78871;SDS011;68247;43.514;1.502;2023-06-24T03:29:04;7.18;;;4.60;;
78871;SDS011;68247;43.514;1.502;2023-06-24T03:31:29;7.37;;;4.33;;
78871;SDS011;68247;43.514;1.502;2023-06-24T03:33:55;7.43;;;4.27;;
78871;SDS011;68247;43.514;1.502;2023-06-24T03:36:20;6.20;;;3.97;;
78871;SDS011;68247;43.514;1.502;2023-06-24T03:38:46;9.37;;;4.50;;
78871;SDS011;68247;43.514;1.502;2023-06-24T03:41:11;7.73;;;4.87;;
78871;SDS011;68247;43.514;1.502;2023-06-24T03:43:37;8.45;;;4.15;;
78871;SDS011;68247;43.514;1.502;2023-06-24T03:46:03;7.20;;;4.53;;
78871;SDS011;68247;43.514;1.502;2023-06-24T03:48:28;8.23;;;4.77;;
78871;SDS011;68247;43.514;1.502;2023-06-24T03:50:53;7.63;;;4.32;;
78871;SDS011;68247;43.514;1.502;2023-06-24T03:53:19;6.90;;;4.27;;
78871;SDS011;68247;43.514;1.502;2023-06-24T03:55:44;7.13;;;4.37;;
78871;SDS011;68247;43.514;1.502;2023-06-24T03:58:10;8.33;;;4.83;;
78871;SDS011;68247;43.514;1.502;2023-06-24T04:00:35;6.75;;;4.03;;
78871;SDS011;68247;43.514;1.502;2023-06-24T04:03:05;7.73;;;4.60;;
78871;SDS011;68247;43.514;1.502;2023-06-24T04:05:32;9.45;;;4.68;;
78871;SDS011;68247;43.514;1.502;2023-06-24T04:07:58;8.18;;;4.57;;
78871;SDS011;68247;43.514;1.502;2023-06-24T04:10:23;9.23;;;5.13;;
78871;SDS011;68247;43.514;1.502;2023-06-24T04:12:49;8.00;;;4.90;;
78871;SDS011;68247;43.514;1.502;2023-06-24T04:15:15;8.30;;;4.90;;
78871;SDS011;68247;43.514;1.502;2023-06-24T04:17:40;8.53;;;4.80;;
78871;SDS011;68247;43.514;1.502;2023-06-24T04:20:06;7.37;;;4.83;;
78871;SDS011;68247;43.514;1.502;2023-06-24T04:22:37;8.27;;;4.60;;
78871;SDS011;68247;43.514;1.502;2023-06-24T04:25:04;9.00;;;4.95;;
78871;SDS011;68247;43.514;1.502;2023-06-24T04:27:31;8.57;;;4.60;;
78871;SDS011;68247;43.514;1.502;2023-06-24T04:29:58;8.85;;;5.03;;
78871;SDS011;68247;43.514;1.502;2023-06-24T04:32:24;8.37;;;4.70;;
78871;SDS011;68247;43.514;1.502;2023-06-24T04:34:49;10.30;;;5.37;;
78871;SDS011;68247;43.514;1.502;2023-06-24T04:37:15;8.35;;;4.32;;
78871;SDS011;68247;43.514;1.502;2023-06-24T04:39:40;10.33;;;4.40;;
78871;SDS011;68247;43.514;1.502;2023-06-24T04:42:06;11.05;;;5.05;;
78871;SDS011;68247;43.514;1.502;2023-06-24T04:44:31;9.10;;;5.60;;
78871;SDS011;68247;43.514;1.502;2023-06-24T04:46:57;10.03;;;5.80;;
78871;SDS011;68247;43.514;1.502;2023-06-24T04:49:22;9.90;;;5.10;;
78871;SDS011;68247;43.514;1.502;2023-06-24T04:51:48;8.97;;;5.00;;
78871;SDS011;68247;43.514;1.502;2023-06-24T04:54:13;9.07;;;5.47;;
78871;SDS011;68247;43.514;1.502;2023-06-24T04:56:39;7.77;;;4.77;;
78871;SDS011;68247;43.514;1.502;2023-06-24T04:59:05;8.80;;;5.28;;
78871;SDS011;68247;43.514;1.502;2023-06-24T05:01:30;11.97;;;5.57;;
78871;SDS011;68247;43.514;1.502;2023-06-24T05:03:56;9.77;;;4.80;;
78871;SDS011;68247;43.514;1.502;2023-06-24T05:06:21;9.50;;;5.40;;
78871;SDS011;68247;43.514;1.502;2023-06-24T05:08:46;8.20;;;4.90;;
78871;SDS011;68247;43.514;1.502;2023-06-24T05:11:12;9.23;;;5.10;;
78871;SDS011;68247;43.514;1.502;2023-06-24T05:13:37;9.80;;;5.20;;
78871;SDS011;68247;43.514;1.502;2023-06-24T05:16:03;10.27;;;5.07;;
78871;SDS011;68247;43.514;1.502;2023-06-24T05:18:28;9.45;;;5.30;;
78871;SDS011;68247;43.514;1.502;2023-06-24T05:20:53;8.73;;;4.77;;
78871;SDS011;68247;43.514;1.502;2023-06-24T05:23:19;8.33;;;5.30;;
78871;SDS011;68247;43.514;1.502;2023-06-24T05:25:44;9.93;;;5.53;;
78871;SDS011;68247;43.514;1.502;2023-06-24T05:28:10;7.90;;;5.10;;
78871;SDS011;68247;43.514;1.502;2023-06-24T05:30:35;9.00;;;4.60;;
78871;SDS011;68247;43.514;1.502;2023-06-24T05:33:01;9.73;;;4.93;;
78871;SDS011;68247;43.514;1.502;2023-06-24T05:35:26;9.00;;;5.17;;
78871;SDS011;68247;43.514;1.502;2023-06-24T05:37:51;7.85;;;4.75;;
78871;SDS011;68247;43.514;1.502;2023-06-24T05:40:17;7.13;;;4.07;;
78871;SDS011;68247;43.514;1.502;2023-06-24T05:42:42;9.70;;;4.73;;
78871;SDS011;68247;43.514;1.502;2023-06-24T05:45:08;9.23;;;4.97;;
78871;SDS011;68247;43.514;1.502;2023-06-24T05:47:33;9.77;;;4.82;;
78871;SDS011;68247;43.514;1.502;2023-06-24T05:49:59;7.47;;;3.97;;
78871;SDS011;68247;43.514;1.502;2023-06-24T05:52:24;6.97;;;4.00;;
78871;SDS011;68247;43.514;1.502;2023-06-24T05:54:50;6.57;;;4.00;;
78871;SDS011;68247;43.514;1.502;2023-06-24T05:57:15;6.75;;;4.13;;
78871;SDS011;68247;43.514;1.502;2023-06-24T05:59:40;6.27;;;3.67;;
78871;SDS011;68247;43.514;1.502;2023-06-24T06:02:06;8.63;;;4.17;;
78871;SDS011;68247;43.514;1.502;2023-06-24T06:04:32;6.23;;;3.73;;
78871;SDS011;68247;43.514;1.502;2023-06-24T06:06:57;5.90;;;3.92;;
78871;SDS011;68247;43.514;1.502;2023-06-24T06:09:22;7.43;;;3.67;;
78871;SDS011;68247;43.514;1.502;2023-06-24T06:11:48;7.00;;;3.90;;
78871;SDS011;68247;43.514;1.502;2023-06-24T06:14:13;7.53;;;4.30;;
78871;SDS011;68247;43.514;1.502;2023-06-24T06:16:39;8.20;;;3.88;;
78871;SDS011;68247;43.514;1.502;2023-06-24T06:19:04;7.60;;;4.00;;
78871;SDS011;68247;43.514;1.502;2023-06-24T06:21:30;7.70;;;4.30;;
78871;SDS011;68247;43.514;1.502;2023-06-24T06:23:55;6.72;;;3.53;;
78871;SDS011;68247;43.514;1.502;2023-06-24T06:26:21;6.57;;;3.70;;
78871;SDS011;68247;43.514;1.502;2023-06-24T06:28:46;6.53;;;3.90;;
78871;SDS011;68247;43.514;1.502;2023-06-24T06:31:15;7.93;;;3.60;;
78871;SDS011;68247;43.514;1.502;2023-06-24T06:33:41;7.63;;;4.40;;
78871;SDS011;68247;43.514;1.502;2023-06-24T06:36:06;7.18;;;3.80;;
78871;SDS011;68247;43.514;1.502;2023-06-24T06:38:32;6.57;;;3.93;;
78871;SDS011;68247;43.514;1.502;2023-06-24T06:40:58;8.82;;;3.75;;
78871;SDS011;68247;43.514;1.502;2023-06-24T06:43:24;8.73;;;4.03;;
78871;SDS011;68247;43.514;1.502;2023-06-24T06:45:49;7.47;;;4.10;;
78871;SDS011;68247;43.514;1.502;2023-06-24T06:48:15;9.10;;;3.72;;
78871;SDS011;68247;43.514;1.502;2023-06-24T06:50:40;6.90;;;3.80;;
78871;SDS011;68247;43.514;1.502;2023-06-24T06:53:05;5.97;;;3.37;;
78871;SDS011;68247;43.514;1.502;2023-06-24T06:55:31;5.93;;;3.60;;
78871;SDS011;68247;43.514;1.502;2023-06-24T06:57:56;6.33;;;3.67;;
78871;SDS011;68247;43.514;1.502;2023-06-24T07:00:22;6.70;;;3.90;;
78871;SDS011;68247;43.514;1.502;2023-06-24T07:02:47;7.30;;;3.53;;
78871;SDS011;68247;43.514;1.502;2023-06-24T07:05:12;7.70;;;3.60;;
78871;SDS011;68247;43.514;1.502;2023-06-24T07:07:38;8.23;;;3.37;;
78871;SDS011;68247;43.514;1.502;2023-06-24T07:10:04;6.57;;;3.58;;
78871;SDS011;68247;43.514;1.502;2023-06-24T07:12:30;6.47;;;3.67;;
78871;SDS011;68247;43.514;1.502;2023-06-24T07:14:56;7.32;;;3.85;;
78871;SDS011;68247;43.514;1.502;2023-06-24T07:17:21;7.70;;;4.28;;
78871;SDS011;68247;43.514;1.502;2023-06-24T07:19:47;8.87;;;3.50;;
78871;SDS011;68247;43.514;1.502;2023-06-24T07:22:13;7.03;;;3.80;;
78871;SDS011;68247;43.514;1.502;2023-06-24T07:24:38;6.70;;;3.58;;
78871;SDS011;68247;43.514;1.502;2023-06-24T07:27:04;8.30;;;4.00;;
78871;SDS011;68247;43.514;1.502;2023-06-24T07:29:29;9.07;;;4.13;;
78871;SDS011;68247;43.514;1.502;2023-06-24T07:31:55;6.72;;;3.70;;
78871;SDS011;68247;43.514;1.502;2023-06-24T07:34:20;7.80;;;3.80;;
78871;SDS011;68247;43.514;1.502;2023-06-24T07:36:45;8.30;;;3.60;;
78871;SDS011;68247;43.514;1.502;2023-06-24T07:39:11;7.43;;;4.17;;
78871;SDS011;68247;43.514;1.502;2023-06-24T07:41:36;6.83;;;4.07;;
78871;SDS011;68247;43.514;1.502;2023-06-24T07:44:02;6.63;;;3.40;;
78871;SDS011;68247;43.514;1.502;2023-06-24T07:46:27;7.40;;;3.47;;
78871;SDS011;68247;43.514;1.502;2023-06-24T07:48:53;6.57;;;3.50;;
78871;SDS011;68247;43.514;1.502;2023-06-24T07:51:18;5.05;;;3.10;;
78871;SDS011;68247;43.514;1.502;2023-06-24T07:53:44;6.80;;;3.13;;
78871;SDS011;68247;43.514;1.502;2023-06-24T07:56:09;5.80;;;2.87;;
78871;SDS011;68247;43.514;1.502;2023-06-24T07:58:35;5.97;;;3.40;;
78871;SDS011;68247;43.514;1.502;2023-06-24T08:01:03;5.28;;;3.15;;
78871;SDS011;68247;43.514;1.502;2023-06-24T08:03:28;5.40;;;3.13;;
78871;SDS011;68247;43.514;1.502;2023-06-24T08:05:54;5.07;;;3.03;;
78871;SDS011;68247;43.514;1.502;2023-06-24T08:08:19;5.93;;;3.23;;
78871;SDS011;68247;43.514;1.502;2023-06-24T08:10:45;6.30;;;2.75;;
78871;SDS011;68247;43.514;1.502;2023-06-24T08:13:11;6.37;;;3.43;;
78871;SDS011;68247;43.514;1.502;2023-06-24T08:15:36;6.03;;;3.10;;
78871;SDS011;68247;43.514;1.502;2023-06-24T08:18:02;6.60;;;3.07;;
78871;SDS011;68247;43.514;1.502;2023-06-24T08:20:27;5.43;;;3.03;;
78871;SDS011;68247;43.514;1.502;2023-06-24T08:22:52;5.53;;;3.20;;
78871;SDS011;68247;43.514;1.502;2023-06-24T08:25:18;5.70;;;2.60;;
78871;SDS011;68247;43.514;1.502;2023-06-24T08:27:43;6.07;;;2.70;;
78871;SDS011;68247;43.514;1.502;2023-06-24T08:30:11;5.30;;;2.50;;
78871;SDS011;68247;43.514;1.502;2023-06-24T08:32:38;5.80;;;3.05;;
78871;SDS011;68247;43.514;1.502;2023-06-24T08:35:05;5.00;;;2.97;;
78871;SDS011;68247;43.514;1.502;2023-06-24T08:37:31;5.03;;;2.70;;
78871;SDS011;68247;43.514;1.502;2023-06-24T08:39:57;5.53;;;2.70;;
78871;SDS011;68247;43.514;1.502;2023-06-24T08:42:22;5.60;;;3.53;;
78871;SDS011;68247;43.514;1.502;2023-06-24T08:44:48;5.78;;;2.90;;
78871;SDS011;68247;43.514;1.502;2023-06-24T08:47:13;6.80;;;3.20;;
78871;SDS011;68247;43.514;1.502;2023-06-24T08:49:43;10.48;;;3.85;;
78871;SDS011;68247;43.514;1.502;2023-06-24T08:52:12;7.93;;;3.27;;
78871;SDS011;68247;43.514;1.502;2023-06-24T08:54:40;6.55;;;3.35;;
78871;SDS011;68247;43.514;1.502;2023-06-24T08:57:06;6.97;;;3.20;;
78871;SDS011;68247;43.514;1.502;2023-06-24T08:59:33;9.32;;;3.53;;
78871;SDS011;68247;43.514;1.502;2023-06-24T09:02:00;7.00;;;2.97;;
78871;SDS011;68247;43.514;1.502;2023-06-24T09:04:25;4.70;;;2.90;;
78871;SDS011;68247;43.514;1.502;2023-06-24T09:06:51;5.77;;;3.17;;
78871;SDS011;68247;43.514;1.502;2023-06-24T09:09:19;5.93;;;3.07;;
78871;SDS011;68247;43.514;1.502;2023-06-24T09:11:52;6.00;;;3.13;;
78871;SDS011;68247;43.514;1.502;2023-06-24T09:14:21;6.47;;;3.13;;
78871;SDS011;68247;43.514;1.502;2023-06-24T09:16:51;5.57;;;3.10;;
78871;SDS011;68247;43.514;1.502;2023-06-24T09:19:23;5.80;;;3.00;;
78871;SDS011;68247;43.514;1.502;2023-06-24T09:21:50;6.03;;;3.17;;
78871;SDS011;68247;43.514;1.502;2023-06-24T09:24:18;5.60;;;3.50;;
78871;SDS011;68247;43.514;1.502;2023-06-24T09:26:44;7.03;;;3.10;;
78871;SDS011;68247;43.514;1.502;2023-06-24T09:29:10;6.53;;;3.10;;
78871;SDS011;68247;43.514;1.502;2023-06-24T09:31:45;6.57;;;3.20;;
78871;SDS011;68247;43.514;1.502;2023-06-24T09:34:14;6.53;;;3.53;;
78871;SDS011;68247;43.514;1.502;2023-06-24T09:36:43;7.03;;;3.40;;
78871;SDS011;68247;43.514;1.502;2023-06-24T09:39:12;5.70;;;3.15;;
78871;SDS011;68247;43.514;1.502;2023-06-24T09:41:40;6.30;;;3.90;;
78871;SDS011;68247;43.514;1.502;2023-06-24T09:44:13;7.10;;;3.90;;
78871;SDS011;68247;43.514;1.502;2023-06-24T09:46:38;8.98;;;3.35;;
78871;SDS011;68247;43.514;1.502;2023-06-24T09:49:05;6.18;;;3.65;;
78871;SDS011;68247;43.514;1.502;2023-06-24T09:51:32;5.87;;;3.00;;
78871;SDS011;68247;43.514;1.502;2023-06-24T09:53:59;6.47;;;3.70;;
78871;SDS011;68247;43.514;1.502;2023-06-24T09:56:25;9.33;;;3.33;;
78871;SDS011;68247;43.514;1.502;2023-06-24T09:58:51;5.40;;;3.17;;
78871;SDS011;68247;43.514;1.502;2023-06-24T10:01:16;5.40;;;3.10;;
78871;SDS011;68247;43.514;1.502;2023-06-24T10:03:42;4.43;;;2.80;;
78871;SDS011;68247;43.514;1.502;2023-06-24T10:06:07;7.03;;;3.00;;
78871;SDS011;68247;43.514;1.502;2023-06-24T10:08:33;5.70;;;3.30;;
78871;SDS011;68247;43.514;1.502;2023-06-24T10:10:59;4.53;;;2.90;;
78871;SDS011;68247;43.514;1.502;2023-06-24T10:13:25;4.75;;;2.80;;
78871;SDS011;68247;43.514;1.502;2023-06-24T10:15:51;5.90;;;3.17;;
78871;SDS011;68247;43.514;1.502;2023-06-24T10:18:38;5.93;;;3.42;;
78871;SDS011;68247;43.514;1.502;2023-06-24T10:21:04;6.63;;;3.80;;
78871;SDS011;68247;43.514;1.502;2023-06-24T10:23:52;6.15;;;3.10;;
78871;SDS011;68247;43.514;1.502;2023-06-24T10:44:52;6.28;;;3.17;;
78871;SDS011;68247;43.514;1.502;2023-06-24T10:47:18;5.33;;;3.50;;
78871;SDS011;68247;43.514;1.502;2023-06-24T10:49:45;5.38;;;2.90;;
78871;SDS011;68247;43.514;1.502;2023-06-24T10:52:10;8.32;;;3.60;;
78871;SDS011;68247;43.514;1.502;2023-06-24T10:54:39;5.20;;;3.40;;
78871;SDS011;68247;43.514;1.502;2023-06-24T10:57:06;5.40;;;3.55;;
78871;SDS011;68247;43.514;1.502;2023-06-24T10:59:36;5.65;;;3.47;;
78871;SDS011;68247;43.514;1.502;2023-06-24T11:02:13;5.82;;;3.40;;
78871;SDS011;68247;43.514;1.502;2023-06-24T11:04:58;7.03;;;3.57;;
78871;SDS011;68247;43.514;1.502;2023-06-24T11:07:26;5.78;;;3.10;;
78871;SDS011;68247;43.514;1.502;2023-06-24T11:09:58;6.03;;;3.50;;
78871;SDS011;68247;43.514;1.502;2023-06-24T11:12:36;4.70;;;2.90;;
78871;SDS011;68247;43.514;1.502;2023-06-24T11:15:05;5.03;;;2.80;;
78871;SDS011;68247;43.514;1.502;2023-06-24T11:17:32;5.37;;;3.37;;
78871;SDS011;68247;43.514;1.502;2023-06-24T11:19:58;5.20;;;3.10;;
78871;SDS011;68247;43.514;1.502;2023-06-24T11:22:24;5.57;;;3.07;;
78871;SDS011;68247;43.514;1.502;2023-06-24T11:24:51;6.82;;;3.42;;
78871;SDS011;68247;43.514;1.502;2023-06-24T11:27:23;4.50;;;3.15;;
78871;SDS011;68247;43.514;1.502;2023-06-24T11:29:51;4.63;;;2.92;;
78871;SDS011;68247;43.514;1.502;2023-06-24T11:32:16;4.67;;;3.00;;
78871;SDS011;68247;43.514;1.502;2023-06-24T11:34:42;5.80;;;3.20;;
78871;SDS011;68247;43.514;1.502;2023-06-24T11:39:40;4.60;;;3.08;;
78871;SDS011;68247;43.514;1.502;2023-06-24T11:42:08;4.80;;;3.20;;
78871;SDS011;68247;43.514;1.502;2023-06-24T11:44:34;4.85;;;3.30;;
78871;SDS011;68247;43.514;1.502;2023-06-24T11:47:03;6.83;;;3.70;;
78871;SDS011;68247;43.514;1.502;2023-06-24T11:49:29;5.88;;;3.60;;
78871;SDS011;68247;43.514;1.502;2023-06-24T11:51:54;6.20;;;3.60;;
78871;SDS011;68247;43.514;1.502;2023-06-24T11:54:20;5.17;;;3.90;;
78871;SDS011;68247;43.514;1.502;2023-06-24T11:56:52;5.30;;;3.47;;
78871;SDS011;68247;43.514;1.502;2023-06-24T12:01:44;4.70;;;3.50;;
78871;SDS011;68247;43.514;1.502;2023-06-24T12:04:13;5.03;;;3.40;;
78871;SDS011;68247;43.514;1.502;2023-06-24T12:06:42;5.70;;;3.00;;
78871;SDS011;68247;43.514;1.502;2023-06-24T12:09:08;6.25;;;3.38;;
78871;SDS011;68247;43.514;1.502;2023-06-24T12:11:34;4.67;;;3.40;;
78871;SDS011;68247;43.514;1.502;2023-06-24T12:13:59;4.53;;;3.72;;
78871;SDS011;68247;43.514;1.502;2023-06-24T12:16:24;4.67;;;3.50;;
78871;SDS011;68247;43.514;1.502;2023-06-24T12:18:51;4.45;;;3.80;;
78871;SDS011;68247;43.514;1.502;2023-06-24T12:21:17;5.10;;;3.43;;
78871;SDS011;68247;43.514;1.502;2023-06-24T12:23:42;5.55;;;3.65;;
78871;SDS011;68247;43.514;1.502;2023-06-24T12:26:08;5.23;;;3.57;;
78871;SDS011;68247;43.514;1.502;2023-06-24T12:28:33;5.10;;;3.10;;
78871;SDS011;68247;43.514;1.502;2023-06-24T12:30:59;4.33;;;3.20;;
78871;SDS011;68247;43.514;1.502;2023-06-24T12:33:24;4.82;;;3.65;;
78871;SDS011;68247;43.514;1.502;2023-06-24T12:35:49;5.15;;;3.83;;
78871;SDS011;68247;43.514;1.502;2023-06-24T12:38:15;4.90;;;3.60;;
78871;SDS011;68247;43.514;1.502;2023-06-24T12:40:41;4.80;;;4.10;;
78871;SDS011;68247;43.514;1.502;2023-06-24T12:43:07;5.65;;;3.72;;
78871;SDS011;68247;43.514;1.502;2023-06-24T12:45:32;4.80;;;3.70;;
78871;SDS011;68247;43.514;1.502;2023-06-24T12:47:57;4.38;;;3.70;;
78871;SDS011;68247;43.514;1.502;2023-06-24T12:50:24;5.50;;;3.45;;
78871;SDS011;68247;43.514;1.502;2023-06-24T12:52:49;4.97;;;3.90;;
78871;SDS011;68247;43.514;1.502;2023-06-24T12:55:15;4.80;;;4.00;;
78871;SDS011;68247;43.514;1.502;2023-06-24T12:57:40;4.10;;;3.70;;
78871;SDS011;68247;43.514;1.502;2023-06-24T13:00:06;5.23;;;3.93;;
78871;SDS011;68247;43.514;1.502;2023-06-24T13:02:32;5.53;;;3.78;;
78871;SDS011;68247;43.514;1.502;2023-06-24T13:04:58;5.07;;;4.43;;
78871;SDS011;68247;43.514;1.502;2023-06-24T13:07:23;4.80;;;4.30;;
78871;SDS011;68247;43.514;1.502;2023-06-24T13:09:49;4.30;;;3.90;;
78871;SDS011;68247;43.514;1.502;2023-06-24T13:12:14;4.05;;;3.65;;
78871;SDS011;68247;43.514;1.502;2023-06-24T13:14:39;4.60;;;4.00;;
78871;SDS011;68247;43.514;1.502;2023-06-24T13:17:05;4.13;;;3.50;;
78871;SDS011;68247;43.514;1.502;2023-06-24T13:19:31;4.45;;;4.05;;
78871;SDS011;68247;43.514;1.502;2023-06-24T13:21:57;4.45;;;3.47;;
78871;SDS011;68247;43.514;1.502;2023-06-24T13:24:23;4.20;;;3.80;;
78871;SDS011;68247;43.514;1.502;2023-06-24T13:26:50;4.50;;;4.07;;
78871;SDS011;68247;43.514;1.502;2023-06-24T13:29:15;4.27;;;3.87;;
78871;SDS011;68247;43.514;1.502;2023-06-24T13:31:41;4.93;;;4.37;;
78871;SDS011;68247;43.514;1.502;2023-06-24T13:34:06;5.15;;;4.28;;
78871;SDS011;68247;43.514;1.502;2023-06-24T13:36:35;4.97;;;3.87;;
78871;SDS011;68247;43.514;1.502;2023-06-24T13:39:02;6.80;;;4.22;;
78871;SDS011;68247;43.514;1.502;2023-06-24T13:41:31;4.20;;;3.80;;
78871;SDS011;68247;43.514;1.502;2023-06-24T13:44:06;5.55;;;3.80;;
78871;SDS011;68247;43.514;1.502;2023-06-24T13:46:32;4.10;;;3.70;;
78871;SDS011;68247;43.514;1.502;2023-06-24T13:48:58;4.75;;;4.28;;
78871;SDS011;68247;43.514;1.502;2023-06-24T13:51:24;5.40;;;4.90;;
78871;SDS011;68247;43.514;1.502;2023-06-24T13:53:50;4.32;;;3.92;;
78871;SDS011;68247;43.514;1.502;2023-06-24T13:56:18;5.45;;;4.95;;
78871;SDS011;68247;43.514;1.502;2023-06-24T13:58:44;5.05;;;4.55;;
78871;SDS011;68247;43.514;1.502;2023-06-24T14:01:10;5.35;;;4.10;;
78871;SDS011;68247;43.514;1.502;2023-06-24T14:03:35;5.57;;;4.33;;
78871;SDS011;68247;43.514;1.502;2023-06-24T14:06:01;4.97;;;4.20;;
78871;SDS011;68247;43.514;1.502;2023-06-24T14:08:28;6.25;;;5.30;;
78871;SDS011;68247;43.514;1.502;2023-06-24T14:10:54;5.22;;;4.50;;
78871;SDS011;68247;43.514;1.502;2023-06-24T14:13:20;5.57;;;4.33;;
78871;SDS011;68247;43.514;1.502;2023-06-24T14:15:46;6.13;;;4.68;;
78871;SDS011;68247;43.514;1.502;2023-06-24T14:18:11;5.73;;;4.70;;
78871;SDS011;68247;43.514;1.502;2023-06-24T14:20:37;5.33;;;4.77;;
78871;SDS011;68247;43.514;1.502;2023-06-24T14:23:03;5.30;;;4.50;;
78871;SDS011;68247;43.514;1.502;2023-06-24T14:25:29;5.38;;;4.88;;
78871;SDS011;68247;43.514;1.502;2023-06-24T14:27:54;5.30;;;4.80;;
78871;SDS011;68247;43.514;1.502;2023-06-24T14:30:20;5.28;;;4.78;;
78871;SDS011;68247;43.514;1.502;2023-06-24T14:32:45;5.40;;;4.90;;
78871;SDS011;68247;43.514;1.502;2023-06-24T14:35:11;5.20;;;4.70;;
78871;SDS011;68247;43.514;1.502;2023-06-24T14:37:36;5.70;;;4.80;;
78871;SDS011;68247;43.514;1.502;2023-06-24T14:40:02;4.93;;;4.50;;
78871;SDS011;68247;43.514;1.502;2023-06-24T14:42:28;5.05;;;4.55;;
78871;SDS011;68247;43.514;1.502;2023-06-24T14:44:53;5.22;;;4.63;;
78871;SDS011;68247;43.514;1.502;2023-06-24T14:47:19;4.75;;;4.25;;
78871;SDS011;68247;43.514;1.502;2023-06-24T14:49:44;6.03;;;4.70;;
78871;SDS011;68247;43.514;1.502;2023-06-24T14:52:10;4.63;;;4.23;;
78871;SDS011;68247;43.514;1.502;2023-06-24T14:54:35;5.05;;;4.55;;
78871;SDS011;68247;43.514;1.502;2023-06-24T14:57:01;4.90;;;4.33;;
78871;SDS011;68247;43.514;1.502;2023-06-24T14:59:26;4.83;;;4.33;;
78871;SDS011;68247;43.514;1.502;2023-06-24T15:01:51;5.77;;;4.80;;
78871;SDS011;68247;43.514;1.502;2023-06-24T15:04:17;5.50;;;4.50;;
78871;SDS011;68247;43.514;1.502;2023-06-24T15:06:42;5.20;;;4.70;;
78871;SDS011;68247;43.514;1.502;2023-06-24T15:09:08;5.33;;;4.83;;
78871;SDS011;68247;43.514;1.502;2023-06-24T15:11:33;5.97;;;4.90;;
78871;SDS011;68247;43.514;1.502;2023-06-24T15:13:58;5.90;;;4.60;;
78871;SDS011;68247;43.514;1.502;2023-06-24T15:16:24;5.00;;;4.50;;
78871;SDS011;68247;43.514;1.502;2023-06-24T15:18:49;6.13;;;4.22;;
78871;SDS011;68247;43.514;1.502;2023-06-24T15:21:15;4.73;;;4.33;;